createdAt,value
2022-10-04T00:02:21.051Z,8.73
2022-10-04T00:07:19.252Z,7.78
2022-10-04T00:09:57.604Z,7.35
2022-10-04T00:12:42.263Z,8.18
2022-10-04T00:15:21.429Z,8.95
2022-10-04T00:18:00.426Z,9.00
2022-10-04T00:20:47.163Z,8.82
2022-10-04T00:23:28.750Z,8.52
2022-10-04T00:25:58.064Z,8.15
2022-10-04T00:28:25.507Z,8.27
2022-10-04T00:31:22.497Z,8.02
2022-10-04T00:34:18.809Z,9.48
2022-10-04T00:36:47.255Z,9.30
2022-10-04T00:39:15.936Z,9.85
2022-10-04T00:41:57.120Z,9.93
2022-10-04T00:44:35.355Z,9.23
2022-10-04T00:47:04.220Z,9.07
2022-10-04T00:49:34.840Z,9.65
2022-10-04T00:52:03.854Z,10.30
2022-10-04T00:54:45.107Z,9.30
2022-10-04T00:57:16.460Z,10.63
2022-10-04T00:59:51.249Z,10.18
2022-10-04T01:02:20.562Z,10.23
2022-10-04T01:04:50.938Z,9.88
2022-10-04T01:07:22.176Z,11.98
2022-10-04T01:09:53.636Z,10.38
2022-10-04T01:12:27.778Z,10.85
2022-10-04T01:15:06.362Z,9.82
2022-10-04T01:17:33.578Z,9.75
2022-10-04T01:20:00.878Z,10.73
2022-10-04T01:22:41.217Z,10.63
2022-10-04T01:25:08.619Z,10.40
2022-10-04T01:27:45.235Z,11.07
2022-10-04T01:30:16.872Z,11.18
2022-10-04T01:32:45.395Z,11.07
2022-10-04T01:35:14.415Z,10.77
2022-10-04T01:37:41.690Z,11.10
2022-10-04T01:40:09.852Z,10.63
2022-10-04T01:42:41.007Z,10.38
2022-10-04T01:45:11.597Z,11.25
2022-10-04T01:47:44.751Z,10.85
2022-10-04T01:50:15.936Z,9.73
2022-10-04T01:52:44.779Z,11.30
2022-10-04T01:55:14.583Z,8.88
2022-10-04T01:57:58.467Z,10.65
2022-10-04T02:00:39.593Z,10.77
2022-10-04T02:03:12.071Z,11.25
2022-10-04T02:05:41.009Z,10.82
2022-10-04T02:08:18.640Z,11.73
2022-10-04T02:10:46.295Z,12.65
2022-10-04T02:13:18.192Z,11.00
2022-10-04T02:15:47.040Z,12.23
2022-10-04T02:18:15.407Z,11.32
2022-10-04T02:20:42.879Z,12.27
2022-10-04T02:23:10.734Z,13.43
2022-10-04T02:25:38.671Z,10.50
2022-10-04T02:28:10.866Z,12.82
2022-10-04T02:31:09.525Z,13.77
2022-10-04T02:33:44.764Z,12.82
2022-10-04T02:36:13.171Z,12.40
2022-10-04T02:38:46.358Z,11.85
2022-10-04T02:41:22.107Z,13.10
2022-10-04T02:43:49.172Z,12.65
2022-10-04T02:46:24.361Z,13.15
2022-10-04T02:48:57.225Z,13.23
2022-10-04T02:51:25.599Z,11.90
2022-10-04T02:54:02.317Z,13.13
2022-10-04T02:56:30.663Z,12.05
2022-10-04T02:59:01.406Z,12.70
2022-10-04T03:01:36.843Z,13.13
2022-10-04T03:04:04.328Z,13.52
2022-10-04T03:06:33.009Z,13.80
2022-10-04T03:09:02.103Z,13.23
2022-10-04T03:11:35.254Z,13.85
2022-10-04T03:14:03.626Z,11.70
2022-10-04T03:16:36.734Z,12.02
2022-10-04T03:19:04.534Z,12.18
2022-10-04T03:21:33.237Z,12.95
2022-10-04T03:24:01.143Z,13.48
2022-10-04T03:26:30.613Z,12.32
2022-10-04T03:28:58.799Z,11.80
2022-10-04T03:31:27.944Z,13.93
2022-10-04T03:33:56.581Z,12.05
2022-10-04T03:36:30.510Z,14.05
2022-10-04T03:38:58.538Z,14.10
2022-10-04T03:41:26.338Z,12.85
2022-10-04T03:43:55.506Z,14.32
2022-10-04T03:46:23.153Z,14.07
2022-10-04T03:48:51.932Z,13.50
2022-10-04T03:51:26.648Z,14.27
2022-10-04T03:53:58.192Z,14.60
2022-10-04T03:56:27.635Z,15.13
2022-10-04T03:58:55.875Z,13.70
2022-10-04T04:01:31.765Z,14.00
2022-10-04T04:04:13.027Z,13.38
2022-10-04T04:06:58.942Z,12.48
2022-10-04T04:09:31.707Z,13.35
2022-10-04T04:12:07.272Z,13.48
2022-10-04T04:14:34.557Z,15.00
2022-10-04T04:17:19.983Z,15.95
2022-10-04T04:19:47.704Z,14.07
2022-10-04T04:22:17.549Z,14.93
2022-10-04T04:24:45.208Z,14.45
2022-10-04T04:27:13.516Z,13.38
2022-10-04T04:29:48.038Z,15.27
2022-10-04T04:32:32.967Z,13.98
2022-10-04T04:35:06.866Z,14.82
2022-10-04T04:37:35.510Z,14.73
2022-10-04T04:40:18.254Z,14.95
2022-10-04T04:45:16.133Z,13.70
2022-10-04T04:47:44.483Z,13.93
2022-10-04T04:50:16.216Z,14.57
2022-10-04T04:52:55.022Z,16.02
2022-10-04T04:55:24.376Z,15.25
2022-10-04T04:57:52.256Z,15.00
2022-10-04T05:00:20.746Z,15.43
2022-10-04T05:02:56.163Z,14.95
2022-10-04T05:05:30.534Z,13.93
2022-10-04T05:08:05.601Z,15.15
2022-10-04T05:10:34.197Z,15.63
2022-10-04T05:13:02.328Z,14.68
2022-10-04T05:15:34.125Z,14.10
2022-10-04T05:18:01.954Z,15.25
2022-10-04T05:20:31.840Z,14.57
2022-10-04T05:22:59.580Z,15.48
2022-10-04T05:25:32.334Z,15.52
2022-10-04T05:28:00.157Z,14.00
2022-10-04T05:30:33.343Z,15.48
2022-10-04T05:33:00.441Z,13.73
2022-10-04T05:35:28.649Z,15.88
2022-10-04T05:38:05.594Z,14.30
2022-10-04T05:40:50.478Z,15.80
2022-10-04T05:43:22.641Z,15.85
2022-10-04T05:46:07.603Z,13.43
2022-10-04T05:48:36.504Z,13.55
2022-10-04T05:51:13.077Z,13.55
2022-10-04T05:56:20.777Z,14.15
2022-10-04T05:59:06.696Z,10.50
2022-10-04T06:01:39.661Z,13.63
2022-10-04T06:04:17.932Z,14.25
2022-10-04T06:06:45.048Z,13.48
2022-10-04T06:09:31.075Z,12.68
2022-10-04T06:12:11.588Z,13.32
2022-10-04T06:14:38.622Z,13.00
2022-10-04T06:17:05.976Z,13.25
2022-10-04T06:19:42.031Z,13.45
2022-10-04T06:22:16.020Z,13.15
2022-10-04T06:24:45.083Z,10.57
2022-10-04T06:27:31.135Z,13.80
2022-10-04T06:30:02.692Z,14.10
2022-10-04T06:32:48.003Z,12.38
2022-10-04T06:35:31.839Z,13.52
2022-10-04T06:37:59.107Z,13.45
2022-10-04T06:40:26.951Z,9.75
2022-10-04T06:43:01.577Z,14.60
2022-10-04T06:45:38.214Z,13.20
2022-10-04T06:48:14.441Z,13.32
2022-10-04T06:50:53.372Z,11.30
2022-10-04T06:53:39.483Z,12.10
2022-10-04T06:56:09.639Z,12.23
2022-10-04T06:59:03.169Z,10.70
2022-10-04T07:01:34.129Z,11.35
2022-10-04T07:04:06.555Z,11.13
2022-10-04T07:06:38.706Z,9.38
2022-10-04T07:09:07.916Z,9.32
2022-10-04T07:11:44.075Z,8.95
2022-10-04T07:16:47.359Z,9.93
2022-10-04T07:19:20.715Z,10.00
2022-10-04T07:21:54.135Z,6.90
2022-10-04T07:24:25.505Z,9.40
2022-10-04T07:26:53.811Z,10.55
2022-10-04T07:29:23.604Z,8.52
2022-10-04T07:32:09.964Z,10.60
2022-10-04T07:34:37.093Z,9.20
2022-10-04T07:37:15.676Z,8.45
2022-10-04T07:40:20.765Z,9.10
2022-10-04T07:42:53.008Z,7.57
2022-10-04T07:45:30.275Z,7.75
2022-10-04T07:48:23.237Z,7.03
2022-10-04T07:51:22.635Z,8.80
2022-10-04T07:53:59.036Z,9.05
2022-10-04T07:56:55.331Z,7.20
2022-10-04T07:59:48.731Z,7.10
2022-10-04T08:02:54.057Z,7.03
2022-10-04T08:05:49.926Z,7.20
2022-10-04T08:08:28.676Z,7.75
2022-10-04T08:10:57.410Z,7.20
2022-10-04T08:13:51.072Z,8.30
2022-10-04T08:16:18.252Z,8.18
2022-10-04T08:18:57.015Z,7.55
2022-10-04T08:21:37.331Z,6.25
2022-10-04T08:24:30.058Z,6.85
2022-10-04T08:27:04.502Z,5.80
2022-10-04T08:29:48.432Z,7.45
2022-10-04T08:32:32.212Z,6.75
2022-10-04T08:35:36.529Z,6.53
2022-10-04T08:38:22.181Z,6.28
2022-10-04T08:41:13.063Z,4.65
2022-10-04T08:44:27.735Z,4.55
2022-10-04T08:47:13.361Z,5.57
2022-10-04T08:50:21.704Z,6.38
2022-10-04T08:53:10.793Z,6.68
2022-10-04T08:56:17.284Z,5.32
2022-10-04T08:59:28.815Z,5.80
2022-10-04T09:02:07.249Z,6.93
2022-10-04T09:12:24.630Z,6.57
2022-10-04T09:15:07.776Z,4.13
2022-10-04T09:17:49.469Z,5.82
2022-10-04T09:20:39.802Z,6.35
2022-10-04T09:23:07.326Z,5.28
2022-10-04T09:25:49.776Z,6.07
2022-10-04T09:28:44.814Z,5.45
2022-10-04T09:31:32.964Z,5.22
2022-10-04T09:37:12.930Z,5.10
2022-10-04T09:39:59.313Z,6.43
2022-10-04T09:42:26.356Z,5.15
2022-10-04T09:45:24.537Z,6.35
2022-10-04T09:48:25.781Z,5.30
2022-10-04T09:51:19.850Z,6.65
2022-10-04T09:54:24.027Z,5.45
2022-10-04T09:57:15.807Z,5.78
2022-10-04T10:00:05.976Z,5.15
2022-10-04T10:03:18.410Z,5.70
2022-10-04T10:06:08.057Z,6.00
2022-10-04T10:09:12.375Z,6.47
2022-10-04T10:12:30.991Z,6.30
2022-10-04T10:15:29.653Z,5.20
2022-10-04T10:18:15.324Z,4.82
2022-10-04T10:21:30.898Z,6.38
2022-10-04T10:24:43.523Z,5.25
2022-10-04T10:27:28.936Z,4.80
2022-10-04T10:30:38.099Z,6.10
2022-10-04T10:33:34.116Z,4.65
2022-10-04T10:36:29.977Z,5.25
2022-10-04T10:39:31.518Z,5.55
2022-10-04T10:42:31.096Z,5.55
2022-10-04T10:45:40.492Z,5.93
2022-10-04T10:48:22.426Z,6.30
2022-10-04T10:51:00.380Z,5.93
2022-10-04T10:54:05.246Z,6.40
2022-10-04T10:56:50.361Z,6.63
2022-10-04T10:59:51.882Z,6.32
2022-10-04T11:02:49.399Z,5.50
2022-10-04T11:06:04.414Z,6.10
2022-10-04T11:09:10.830Z,5.05
2022-10-04T11:11:44.396Z,6.35
2022-10-04T11:14:47.070Z,6.10
2022-10-04T11:17:14.134Z,5.10
2022-10-04T11:20:18.257Z,4.68
2022-10-04T11:23:22.460Z,4.00
2022-10-04T11:26:16.538Z,4.97
2022-10-04T11:29:10.208Z,3.72
2022-10-04T11:31:56.819Z,4.05
2022-10-04T11:35:01.267Z,4.80
2022-10-04T11:37:28.439Z,5.15
2022-10-04T11:39:55.495Z,4.95
2022-10-04T11:43:07.959Z,4.82
2022-10-04T11:46:10.858Z,4.47
2022-10-04T11:48:48.529Z,4.45
2022-10-04T11:52:08.324Z,3.47
2022-10-04T11:55:08.113Z,5.70
2022-10-04T11:57:37.112Z,4.47
2022-10-04T12:00:24.648Z,3.28
2022-10-04T12:03:21.474Z,3.85
2022-10-04T12:05:53.336Z,4.10
2022-10-04T12:08:32.968Z,4.50
2022-10-04T12:11:21.218Z,3.50
2022-10-04T12:14:13.411Z,4.05
2022-10-04T12:17:01.735Z,3.88
2022-10-04T12:22:30.842Z,4.95
2022-10-04T12:25:30.141Z,4.70
2022-10-04T12:28:34.515Z,3.63
2022-10-04T12:31:23.285Z,4.55
2022-10-04T12:33:59.654Z,3.75
2022-10-04T12:36:39.786Z,3.72
2022-10-04T12:42:34.352Z,4.65
2022-10-04T12:45:12.891Z,2.65
2022-10-04T12:47:44.565Z,3.30
2022-10-04T12:50:40.801Z,4.25
2022-10-04T12:53:32.070Z,4.20
2022-10-04T12:56:13.289Z,4.15
2022-10-04T12:59:02.012Z,4.00
2022-10-04T13:01:50.070Z,4.50
2022-10-04T13:04:29.197Z,4.22
2022-10-04T13:07:05.465Z,4.18
2022-10-04T13:10:24.233Z,5.28
2022-10-04T13:13:19.165Z,3.83
2022-10-04T13:19:13.712Z,5.35
2022-10-04T13:21:40.853Z,5.03
2022-10-04T13:24:53.445Z,5.35
2022-10-04T13:27:34.404Z,3.75
2022-10-04T13:30:23.350Z,4.82
2022-10-04T13:33:15.161Z,4.93
2022-10-04T13:35:50.302Z,4.72
2022-10-04T13:38:59.617Z,4.65
2022-10-04T13:41:26.672Z,5.60
2022-10-04T13:44:14.167Z,4.70
2022-10-04T13:47:18.048Z,4.05
2022-10-04T13:50:04.172Z,3.72
2022-10-04T13:53:08.044Z,4.53
2022-10-04T13:56:06.361Z,3.35
2022-10-04T13:58:48.346Z,3.80
2022-10-04T14:01:35.987Z,3.90
2022-10-04T14:04:36.003Z,5.50
2022-10-04T14:07:23.695Z,4.88
2022-10-04T14:10:16.724Z,4.97
2022-10-04T14:13:16.768Z,5.18
2022-10-04T14:15:56.127Z,4.72
2022-10-04T14:18:47.963Z,5.40
2022-10-04T14:21:59.926Z,3.78
2022-10-04T14:25:00.235Z,5.18
2022-10-04T14:27:58.460Z,4.43
2022-10-04T14:31:05.845Z,5.25
2022-10-04T14:33:44.582Z,4.10
2022-10-04T14:36:53.851Z,4.97
2022-10-04T14:39:52.264Z,5.13
2022-10-04T14:42:19.333Z,4.70
2022-10-04T14:45:06.860Z,2.97
2022-10-04T14:48:05.421Z,5.20
2022-10-04T14:50:58.257Z,3.60
2022-10-04T14:53:42.297Z,5.18
2022-10-04T14:56:58.978Z,4.57
2022-10-04T15:00:09.552Z,3.47
2022-10-04T15:03:06.425Z,4.18
2022-10-04T15:06:09.595Z,5.05
2022-10-04T15:09:02.927Z,4.45
2022-10-04T15:11:57.542Z,4.38
2022-10-04T15:14:38.710Z,4.10
2022-10-04T15:17:24.239Z,5.10
2022-10-04T15:19:58.970Z,5.38
2022-10-04T15:22:30.359Z,5.13
2022-10-04T15:24:59.375Z,3.95
2022-10-04T15:27:35.260Z,4.40
2022-10-04T15:30:23.298Z,4.30
2022-10-04T15:33:16.783Z,4.10
2022-10-04T15:36:14.556Z,6.18
2022-10-04T15:38:41.595Z,5.30
2022-10-04T15:41:18.885Z,5.00
2022-10-04T15:44:11.948Z,5.20
2022-10-04T15:47:07.552Z,4.57
2022-10-04T15:49:52.634Z,4.63
2022-10-04T15:52:48.135Z,4.60
2022-10-04T15:55:18.202Z,4.65
2022-10-04T15:57:44.791Z,4.80
2022-10-04T16:00:19.554Z,5.05
2022-10-04T16:02:55.488Z,4.53
2022-10-04T16:05:26.538Z,4.90
2022-10-04T16:08:03.575Z,4.00
2022-10-04T16:11:00.417Z,4.88
2022-10-04T16:13:28.386Z,4.80
2022-10-04T16:16:25.681Z,4.43
2022-10-04T16:18:53.052Z,4.40
2022-10-04T16:21:39.674Z,4.40
2022-10-04T16:24:30.158Z,4.78
2022-10-04T16:26:57.462Z,4.47
2022-10-04T16:29:24.796Z,4.25
2022-10-04T16:35:08.327Z,4.95
2022-10-04T16:37:56.651Z,4.60
2022-10-04T16:40:38.440Z,4.63
2022-10-04T16:43:30.438Z,4.90
2022-10-04T16:46:03.168Z,4.28
2022-10-04T16:48:36.092Z,5.38
2022-10-04T16:51:23.174Z,5.03
2022-10-04T16:54:08.557Z,5.00
2022-10-04T16:56:54.141Z,4.90
2022-10-04T16:59:41.534Z,5.53
2022-10-04T17:02:38.182Z,4.20
2022-10-04T17:06:00.413Z,4.63
2022-10-04T17:08:48.539Z,5.30
2022-10-04T17:11:35.628Z,5.07
2022-10-04T17:14:33.863Z,4.95
2022-10-04T17:17:12.356Z,5.97
2022-10-04T17:19:45.542Z,4.97
2022-10-04T17:22:20.422Z,4.95
2022-10-04T17:25:21.799Z,5.10
2022-10-04T17:27:53.562Z,4.97
2022-10-04T17:30:26.895Z,4.90
2022-10-04T17:33:19.433Z,5.43
2022-10-04T17:36:11.151Z,5.35
2022-10-04T17:38:56.719Z,6.03
2022-10-04T17:41:51.599Z,5.38
2022-10-04T17:47:21.440Z,5.65
2022-10-04T17:50:34.375Z,5.30
2022-10-04T17:53:29.965Z,5.72
2022-10-04T17:55:59.571Z,4.97
2022-10-04T17:58:39.867Z,5.22
2022-10-04T18:01:30.098Z,5.35
2022-10-04T18:04:13.862Z,5.07
2022-10-04T18:07:16.541Z,5.35
2022-10-04T18:09:43.573Z,5.13
2022-10-04T18:12:38.599Z,5.68
2022-10-04T18:15:26.721Z,5.43
2022-10-04T18:18:08.016Z,4.88
2022-10-04T18:20:40.744Z,5.75
2022-10-04T18:23:28.408Z,5.72
2022-10-04T18:25:59.698Z,5.25
2022-10-04T18:28:26.983Z,5.50
2022-10-04T18:31:00.104Z,5.18
2022-10-04T18:33:51.687Z,4.60
2022-10-04T18:36:23.629Z,5.28
2022-10-04T18:39:09.115Z,5.28
2022-10-04T18:41:54.227Z,5.05
2022-10-04T18:44:30.108Z,4.80
2022-10-04T18:46:59.380Z,6.00
2022-10-04T18:49:33.102Z,4.68
2022-10-04T18:52:13.287Z,5.55
2022-10-04T18:54:55.270Z,5.20
2022-10-04T18:57:25.652Z,5.63
2022-10-04T19:00:19.391Z,4.60
2022-10-04T19:02:47.726Z,4.65
2022-10-04T19:05:26.949Z,5.72
2022-10-04T19:08:11.568Z,5.63
2022-10-04T19:10:48.587Z,5.80
2022-10-04T19:13:30.333Z,5.90
2022-10-04T19:16:16.488Z,5.32
2022-10-04T19:18:58.351Z,4.78
2022-10-04T19:21:31.599Z,6.07
2022-10-04T19:24:07.973Z,6.10
2022-10-04T19:26:41.849Z,6.63
2022-10-04T19:29:32.477Z,4.60
2022-10-04T19:32:07.913Z,6.15
2022-10-04T19:35:10.054Z,4.63
2022-10-04T19:37:52.971Z,5.20
2022-10-04T19:40:33.743Z,5.00
2022-10-04T19:43:07.552Z,5.95
2022-10-04T19:46:04.489Z,4.65
2022-10-04T19:48:40.936Z,6.18
2022-10-04T19:51:33.928Z,5.03
2022-10-04T19:54:15.837Z,5.40
2022-10-04T19:56:48.055Z,5.38
2022-10-04T19:59:41.805Z,5.18
2022-10-04T20:02:13.556Z,5.32
2022-10-04T20:04:43.586Z,5.07
2022-10-04T20:07:26.598Z,4.85
2022-10-04T20:09:54.976Z,5.25
2022-10-04T20:12:35.413Z,6.20
2022-10-04T20:15:16.718Z,5.68
2022-10-04T20:17:45.636Z,4.80
2022-10-04T20:20:37.497Z,5.25
2022-10-04T20:23:07.530Z,5.18
2022-10-04T20:28:40.155Z,4.50
2022-10-04T20:31:08.459Z,5.13
2022-10-04T20:33:39.053Z,5.28
2022-10-04T20:36:09.907Z,4.93
2022-10-04T20:38:48.118Z,5.80
2022-10-04T20:41:54.198Z,4.68
2022-10-04T20:45:03.871Z,5.20
2022-10-04T20:47:38.069Z,5.43
2022-10-04T20:50:10.634Z,5.53
2022-10-04T20:52:43.201Z,4.72
2022-10-04T20:55:28.120Z,5.43
2022-10-04T20:57:56.102Z,3.22
2022-10-04T21:00:25.816Z,6.00
2022-10-04T21:03:09.622Z,4.78
2022-10-04T21:05:39.388Z,4.90
2022-10-04T21:08:21.293Z,4.60
2022-10-04T21:11:14.306Z,5.30
2022-10-04T21:13:49.044Z,5.30
2022-10-04T21:16:48.264Z,6.03
2022-10-04T21:19:35.768Z,5.13
2022-10-04T21:22:10.290Z,5.32
2022-10-04T21:24:41.729Z,6.18
2022-10-04T21:27:24.647Z,4.93
2022-10-04T21:29:54.789Z,5.18
2022-10-04T21:32:22.433Z,5.90
2022-10-04T21:34:54.132Z,5.78
2022-10-04T21:37:22.104Z,6.20
2022-10-04T21:39:49.468Z,4.22
2022-10-04T21:42:17.127Z,6.07
2022-10-04T21:44:44.536Z,5.28
2022-10-04T21:47:15.878Z,5.15
2022-10-04T21:49:43.144Z,4.78
2022-10-04T21:52:10.497Z,5.88
2022-10-04T21:54:37.322Z,6.05
2022-10-04T21:57:04.596Z,6.05
2022-10-04T21:59:31.919Z,5.72
2022-10-04T22:01:59.289Z,4.78
2022-10-04T22:04:26.532Z,5.07
2022-10-04T22:06:53.667Z,4.38
2022-10-04T22:09:21.155Z,6.00
2022-10-04T22:11:48.794Z,6.63
2022-10-04T22:14:16.171Z,4.30
2022-10-04T22:16:44.214Z,6.07
2022-10-04T22:22:21.624Z,5.03
2022-10-04T22:24:48.924Z,5.13
2022-10-04T22:27:18.742Z,5.97
2022-10-04T22:29:46.280Z,6.20
2022-10-04T22:32:18.398Z,5.22
2022-10-04T22:34:45.815Z,6.20
2022-10-04T22:37:14.727Z,5.38
2022-10-04T22:39:42.071Z,5.97
2022-10-04T22:42:13.796Z,6.20
2022-10-04T22:44:41.435Z,5.50
2022-10-04T22:47:16.607Z,5.32
2022-10-04T22:49:44.683Z,6.85
2022-10-04T22:52:17.663Z,5.60
2022-10-04T22:54:47.861Z,5.93
2022-10-04T22:57:15.852Z,6.53
2022-10-04T22:59:44.323Z,4.85
2022-10-04T23:02:32.089Z,6.65
2022-10-04T23:05:09.465Z,6.57
2022-10-04T23:07:38.495Z,7.03
2022-10-04T23:10:06.660Z,7.05
2022-10-04T23:12:34.096Z,5.55
2022-10-04T23:15:02.012Z,5.03
2022-10-04T23:17:34.659Z,6.93
2022-10-04T23:20:03.096Z,6.88
2022-10-04T23:22:30.988Z,6.05
2022-10-04T23:24:58.145Z,5.72
2022-10-04T23:27:25.305Z,6.55
2022-10-04T23:29:57.433Z,7.18
2022-10-04T23:32:26.437Z,7.18
2022-10-04T23:34:56.872Z,7.07
2022-10-04T23:37:30.657Z,5.10
2022-10-04T23:39:57.934Z,6.15
2022-10-04T23:42:31.575Z,6.85
2022-10-04T23:45:00.039Z,7.63
2022-10-04T23:47:36.835Z,5.93
2022-10-04T23:50:17.179Z,7.47
2022-10-04T23:52:44.523Z,6.22
2022-10-04T23:55:17.599Z,6.95
2022-10-04T23:57:44.733Z,7.38
